sensor_id;sensor_type;location;lat;lon;timestamp;P1;durP1;ratioP1;P2;durP2;ratioP2
21183;SDS011;18176;49.502;11.754;2022-08-11T00:00:09;5.10;;;3.80;;
21183;SDS011;18176;49.502;11.754;2022-08-11T00:04:09;4.30;;;3.90;;
21183;SDS011;18176;49.502;11.754;2022-08-11T00:08:08;7.27;;;4.10;;
21183;SDS011;18176;49.502;11.754;2022-08-11T00:12:14;4.77;;;4.00;;
21183;SDS011;18176;49.502;11.754;2022-08-11T00:16:14;5.70;;;4.10;;
21183;SDS011;18176;49.502;11.754;2022-08-11T00:20:18;5.00;;;4.50;;
21183;SDS011;18176;49.502;11.754;2022-08-11T00:24:15;5.43;;;4.23;;
21183;SDS011;18176;49.502;11.754;2022-08-11T00:28:27;4.20;;;3.80;;
21183;SDS011;18176;49.502;11.754;2022-08-11T00:32:27;7.03;;;4.30;;
21183;SDS011;18176;49.502;11.754;2022-08-11T00:36:27;5.33;;;4.07;;
21183;SDS011;18176;49.502;11.754;2022-08-11T00:40:44;4.23;;;3.83;;
21183;SDS011;18176;49.502;11.754;2022-08-11T00:45:03;6.43;;;4.20;;
21183;SDS011;18176;49.502;11.754;2022-08-11T00:49:17;5.33;;;4.00;;
21183;SDS011;18176;49.502;11.754;2022-08-11T00:53:45;4.30;;;3.70;;
21183;SDS011;18176;49.502;11.754;2022-08-11T01:02:38;8.47;;;4.20;;
21183;SDS011;18176;49.502;11.754;2022-08-11T01:06:48;6.40;;;3.90;;
21183;SDS011;18176;49.502;11.754;2022-08-11T01:20:05;6.57;;;4.33;;
21183;SDS011;18176;49.502;11.754;2022-08-11T01:43:34;4.83;;;4.20;;
21183;SDS011;18176;49.502;11.754;2022-08-11T01:52:52;4.73;;;3.97;;
21183;SDS011;18176;49.502;11.754;2022-08-11T01:57:07;6.70;;;4.07;;
21183;SDS011;18176;49.502;11.754;2022-08-11T02:10:54;5.17;;;3.73;;
21183;SDS011;18176;49.502;11.754;2022-08-11T02:15:34;7.57;;;4.00;;
21183;SDS011;18176;49.502;11.754;2022-08-11T02:20:00;5.80;;;4.07;;
21183;SDS011;18176;49.502;11.754;2022-08-11T02:25:01;4.90;;;4.40;;
21183;SDS011;18176;49.502;11.754;2022-08-11T02:33:27;5.40;;;4.03;;
21183;SDS011;18176;49.502;11.754;2022-08-11T02:46:43;4.90;;;3.87;;
21183;SDS011;18176;49.502;11.754;2022-08-11T02:56:02;6.33;;;4.30;;
21183;SDS011;18176;49.502;11.754;2022-08-11T03:00:34;5.53;;;4.67;;
21183;SDS011;18176;49.502;11.754;2022-08-11T03:13:34;7.03;;;4.60;;
21183;SDS011;18176;49.502;11.754;2022-08-11T03:18:23;6.60;;;5.47;;
21183;SDS011;18176;49.502;11.754;2022-08-11T03:23:34;7.70;;;5.87;;
21183;SDS011;18176;49.502;11.754;2022-08-11T03:27:59;5.90;;;5.23;;
21183;SDS011;18176;49.502;11.754;2022-08-11T03:41:33;7.83;;;5.23;;
21183;SDS011;18176;49.502;11.754;2022-08-11T03:46:03;7.67;;;5.60;;
21183;SDS011;18176;49.502;11.754;2022-08-11T03:50:25;6.57;;;5.10;;
21183;SDS011;18176;49.502;11.754;2022-08-11T04:04:16;8.30;;;5.07;;
21183;SDS011;18176;49.502;11.754;2022-08-11T04:23:06;8.47;;;5.43;;
21183;SDS011;18176;49.502;11.754;2022-08-11T04:28:18;5.67;;;5.10;;
21183;SDS011;18176;49.502;11.754;2022-08-11T04:33:01;8.60;;;5.00;;
21183;SDS011;18176;49.502;11.754;2022-08-11T04:37:22;7.80;;;5.47;;
21183;SDS011;18176;49.502;11.754;2022-08-11T04:41:52;7.37;;;5.43;;
21183;SDS011;18176;49.502;11.754;2022-08-11T04:57:22;8.23;;;5.10;;
21183;SDS011;18176;49.502;11.754;2022-08-11T05:15:58;6.30;;;4.50;;
21183;SDS011;18176;49.502;11.754;2022-08-11T05:20:24;8.17;;;4.77;;
21183;SDS011;18176;49.502;11.754;2022-08-11T05:29:23;8.90;;;4.90;;
21183;SDS011;18176;49.502;11.754;2022-08-11T05:38:21;4.57;;;4.10;;
21183;SDS011;18176;49.502;11.754;2022-08-11T05:42:50;12.87;;;4.53;;
21183;SDS011;18176;49.502;11.754;2022-08-11T05:47:22;9.20;;;3.90;;
21183;SDS011;18176;49.502;11.754;2022-08-11T05:51:40;6.10;;;4.00;;
21183;SDS011;18176;49.502;11.754;2022-08-11T05:56:03;8.40;;;4.00;;
21183;SDS011;18176;49.502;11.754;2022-08-11T06:00:16;7.80;;;3.83;;
21183;SDS011;18176;49.502;11.754;2022-08-11T06:04:24;5.10;;;3.70;;
21183;SDS011;18176;49.502;11.754;2022-08-11T06:08:29;4.90;;;3.97;;
21183;SDS011;18176;49.502;11.754;2022-08-11T06:12:31;5.33;;;3.70;;
21183;SDS011;18176;49.502;11.754;2022-08-11T06:16:32;4.83;;;3.63;;
21183;SDS011;18176;49.502;11.754;2022-08-11T06:20:31;5.97;;;3.40;;
21183;SDS011;18176;49.502;11.754;2022-08-11T06:24:33;9.47;;;3.53;;
21183;SDS011;18176;49.502;11.754;2022-08-11T06:28:37;3.58;;;3.17;;
21183;SDS011;18176;49.502;11.754;2022-08-11T06:32:36;6.63;;;3.47;;
21183;SDS011;18176;49.502;11.754;2022-08-11T06:36:50;5.13;;;3.50;;
21183;SDS011;18176;49.502;11.754;2022-08-11T06:41:03;4.95;;;3.20;;
21183;SDS011;18176;49.502;11.754;2022-08-11T06:50:01;4.35;;;3.40;;
21183;SDS011;18176;49.502;11.754;2022-08-11T06:54:20;6.05;;;3.20;;
21183;SDS011;18176;49.502;11.754;2022-08-11T06:58:20;5.13;;;3.45;;
21183;SDS011;18176;49.502;11.754;2022-08-11T07:02:48;6.05;;;2.95;;
21183;SDS011;18176;49.502;11.754;2022-08-11T07:07:00;3.65;;;3.17;;
21183;SDS011;18176;49.502;11.754;2022-08-11T07:16:30;6.45;;;3.58;;
21183;SDS011;18176;49.502;11.754;2022-08-11T07:20:31;7.30;;;3.40;;
21183;SDS011;18176;49.502;11.754;2022-08-11T07:25:08;5.68;;;2.83;;
21183;SDS011;18176;49.502;11.754;2022-08-11T07:29:29;4.85;;;3.00;;
21183;SDS011;18176;49.502;11.754;2022-08-11T07:33:49;4.38;;;2.65;;
21183;SDS011;18176;49.502;11.754;2022-08-11T07:38:05;7.82;;;2.85;;
21183;SDS011;18176;49.502;11.754;2022-08-11T07:42:14;4.60;;;2.95;;
21183;SDS011;18176;49.502;11.754;2022-08-11T07:46:17;3.63;;;2.50;;
21183;SDS011;18176;49.502;11.754;2022-08-11T07:50:38;3.88;;;2.80;;
21183;SDS011;18176;49.502;11.754;2022-08-11T07:54:58;5.88;;;2.58;;
21183;SDS011;18176;49.502;11.754;2022-08-11T07:59:00;3.17;;;2.50;;
21183;SDS011;18176;49.502;11.754;2022-08-11T08:03:38;5.90;;;2.60;;
21183;SDS011;18176;49.502;11.754;2022-08-11T08:07:57;4.28;;;2.30;;
21183;SDS011;18176;49.502;11.754;2022-08-11T08:12:13;3.33;;;2.58;;
21183;SDS011;18176;49.502;11.754;2022-08-11T08:16:30;7.07;;;2.92;;
21183;SDS011;18176;49.502;11.754;2022-08-11T08:20:47;3.80;;;2.50;;
21183;SDS011;18176;49.502;11.754;2022-08-11T08:24:46;4.65;;;2.60;;
21183;SDS011;18176;49.502;11.754;2022-08-11T08:28:44;6.53;;;3.00;;
21183;SDS011;18176;49.502;11.754;2022-08-11T08:32:41;4.50;;;2.75;;
21183;SDS011;18176;49.502;11.754;2022-08-11T08:36:48;6.50;;;3.10;;
21183;SDS011;18176;49.502;11.754;2022-08-11T08:40:49;4.82;;;2.85;;
21183;SDS011;18176;49.502;11.754;2022-08-11T08:45:10;5.57;;;2.40;;
21183;SDS011;18176;49.502;11.754;2022-08-11T08:49:18;6.95;;;2.75;;
21183;SDS011;18176;49.502;11.754;2022-08-11T08:53:25;6.75;;;2.88;;
21183;SDS011;18176;49.502;11.754;2022-08-11T08:57:28;5.15;;;2.80;;
21183;SDS011;18176;49.502;11.754;2022-08-11T09:01:36;7.28;;;2.50;;
21183;SDS011;18176;49.502;11.754;2022-08-11T09:05:49;2.60;;;2.40;;
21183;SDS011;18176;49.502;11.754;2022-08-11T09:09:51;4.30;;;2.30;;
21183;SDS011;18176;49.502;11.754;2022-08-11T09:13:53;8.77;;;2.90;;
21183;SDS011;18176;49.502;11.754;2022-08-11T09:18:02;3.92;;;2.60;;
21183;SDS011;18176;49.502;11.754;2022-08-11T09:22:04;4.35;;;2.65;;
21183;SDS011;18176;49.502;11.754;2022-08-11T09:26:22;9.05;;;2.97;;
21183;SDS011;18176;49.502;11.754;2022-08-11T09:30:46;3.70;;;2.50;;
21183;SDS011;18176;49.502;11.754;2022-08-11T09:34:50;3.05;;;2.55;;
21183;SDS011;18176;49.502;11.754;2022-08-11T09:38:50;4.95;;;2.75;;
21183;SDS011;18176;49.502;11.754;2022-08-11T09:43:07;5.40;;;2.75;;
21183;SDS011;18176;49.502;11.754;2022-08-11T09:47:28;4.70;;;2.47;;
21183;SDS011;18176;49.502;11.754;2022-08-11T09:51:29;2.70;;;2.35;;
21183;SDS011;18176;49.502;11.754;2022-08-11T09:55:29;5.40;;;2.60;;
21183;SDS011;18176;49.502;11.754;2022-08-11T09:59:28;6.57;;;2.40;;
21183;SDS011;18176;49.502;11.754;2022-08-11T10:03:27;9.23;;;2.47;;
21183;SDS011;18176;49.502;11.754;2022-08-11T10:07:28;4.28;;;2.28;;
21183;SDS011;18176;49.502;11.754;2022-08-11T10:11:25;2.60;;;2.40;;
21183;SDS011;18176;49.502;11.754;2022-08-11T10:15:24;4.88;;;2.30;;
21183;SDS011;18176;49.502;11.754;2022-08-11T10:19:33;3.60;;;2.53;;
21183;SDS011;18176;49.502;11.754;2022-08-11T10:23:34;7.60;;;2.72;;
21183;SDS011;18176;49.502;11.754;2022-08-11T10:27:56;5.15;;;2.42;;
21183;SDS011;18176;49.502;11.754;2022-08-11T10:32:24;5.88;;;2.78;;
21183;SDS011;18176;49.502;11.754;2022-08-11T10:36:54;3.92;;;2.42;;
21183;SDS011;18176;49.502;11.754;2022-08-11T10:40:58;2.60;;;2.40;;
21183;SDS011;18176;49.502;11.754;2022-08-11T10:45:15;2.70;;;2.50;;
21183;SDS011;18176;49.502;11.754;2022-08-11T10:49:33;5.57;;;2.40;;
21183;SDS011;18176;49.502;11.754;2022-08-11T10:53:31;4.60;;;2.33;;
21183;SDS011;18176;49.502;11.754;2022-08-11T10:57:49;3.97;;;2.15;;
21183;SDS011;18176;49.502;11.754;2022-08-11T11:02:04;4.32;;;2.20;;
21183;SDS011;18176;49.502;11.754;2022-08-11T11:06:03;2.55;;;2.15;;
21183;SDS011;18176;49.502;11.754;2022-08-11T11:10:24;3.65;;;2.30;;
21183;SDS011;18176;49.502;11.754;2022-08-11T11:14:23;2.83;;;2.20;;
21183;SDS011;18176;49.502;11.754;2022-08-11T11:18:54;2.60;;;2.30;;
21183;SDS011;18176;49.502;11.754;2022-08-11T11:23:02;5.65;;;2.05;;
21183;SDS011;18176;49.502;11.754;2022-08-11T11:40:19;3.97;;;2.30;;
21183;SDS011;18176;49.502;11.754;2022-08-11T11:44:27;2.92;;;2.38;;
21183;SDS011;18176;49.502;11.754;2022-08-11T11:48:26;3.45;;;1.98;;
21183;SDS011;18176;49.502;11.754;2022-08-11T11:52:24;3.83;;;2.17;;
21183;SDS011;18176;49.502;11.754;2022-08-11T11:56:22;2.50;;;2.30;;
21183;SDS011;18176;49.502;11.754;2022-08-11T12:00:23;4.90;;;2.28;;
21183;SDS011;18176;49.502;11.754;2022-08-11T12:04:40;2.50;;;2.30;;
21183;SDS011;18176;49.502;11.754;2022-08-11T12:08:39;4.05;;;2.30;;
21183;SDS011;18176;49.502;11.754;2022-08-11T12:12:38;6.05;;;2.17;;
21183;SDS011;18176;49.502;11.754;2022-08-11T12:16:55;6.57;;;2.30;;
21183;SDS011;18176;49.502;11.754;2022-08-11T12:20:54;4.82;;;2.10;;
21183;SDS011;18176;49.502;11.754;2022-08-11T12:24:51;2.83;;;2.10;;
21183;SDS011;18176;49.502;11.754;2022-08-11T12:29:14;3.10;;;2.20;;
21183;SDS011;18176;49.502;11.754;2022-08-11T12:33:17;5.07;;;2.30;;
21183;SDS011;18176;49.502;11.754;2022-08-11T12:37:21;3.28;;;2.30;;
21183;SDS011;18176;49.502;11.754;2022-08-11T12:41:25;2.33;;;2.13;;
21183;SDS011;18176;49.502;11.754;2022-08-11T12:45:42;6.57;;;2.13;;
21183;SDS011;18176;49.502;11.754;2022-08-11T12:49:43;2.30;;;2.10;;
21183;SDS011;18176;49.502;11.754;2022-08-11T12:54:23;2.65;;;2.17;;
21183;SDS011;18176;49.502;11.754;2022-08-11T12:58:36;5.22;;;2.40;;
21183;SDS011;18176;49.502;11.754;2022-08-11T13:02:38;4.78;;;2.20;;
21183;SDS011;18176;49.502;11.754;2022-08-11T13:06:55;4.13;;;2.38;;
21183;SDS011;18176;49.502;11.754;2022-08-11T13:10:52;4.88;;;2.10;;
21183;SDS011;18176;49.502;11.754;2022-08-11T13:15:19;2.30;;;2.10;;
21183;SDS011;18176;49.502;11.754;2022-08-11T13:19:20;5.45;;;2.30;;
21183;SDS011;18176;49.502;11.754;2022-08-11T13:23:19;4.80;;;2.30;;
21183;SDS011;18176;49.502;11.754;2022-08-11T13:27:20;4.43;;;2.03;;
21183;SDS011;18176;49.502;11.754;2022-08-11T13:31:19;3.85;;;2.03;;
21183;SDS011;18176;49.502;11.754;2022-08-11T13:35:17;3.70;;;2.10;;
21183;SDS011;18176;49.502;11.754;2022-08-11T13:39:17;2.40;;;2.10;;
21183;SDS011;18176;49.502;11.754;2022-08-11T13:43:20;2.55;;;2.30;;
21183;SDS011;18176;49.502;11.754;2022-08-11T13:47:18;2.42;;;2.08;;
21183;SDS011;18176;49.502;11.754;2022-08-11T13:51:19;3.90;;;2.20;;
21183;SDS011;18176;49.502;11.754;2022-08-11T13:55:30;5.45;;;2.40;;
21183;SDS011;18176;49.502;11.754;2022-08-11T13:59:51;4.13;;;2.40;;
21183;SDS011;18176;49.502;11.754;2022-08-11T14:03:53;5.50;;;2.10;;
21183;SDS011;18176;49.502;11.754;2022-08-11T14:08:22;4.05;;;2.50;;
21183;SDS011;18176;49.502;11.754;2022-08-11T14:12:34;4.95;;;2.20;;
21183;SDS011;18176;49.502;11.754;2022-08-11T14:16:54;2.65;;;2.10;;
21183;SDS011;18176;49.502;11.754;2022-08-11T14:20:54;4.82;;;2.10;;
21183;SDS011;18176;49.502;11.754;2022-08-11T14:25:13;2.45;;;2.17;;
21183;SDS011;18176;49.502;11.754;2022-08-11T14:29:13;2.53;;;2.10;;
21183;SDS011;18176;49.502;11.754;2022-08-11T14:33:15;2.70;;;2.15;;
21183;SDS011;18176;49.502;11.754;2022-08-11T14:37:20;3.10;;;2.10;;
21183;SDS011;18176;49.502;11.754;2022-08-11T14:41:21;6.07;;;2.40;;
21183;SDS011;18176;49.502;11.754;2022-08-11T14:45:58;3.80;;;2.50;;
21183;SDS011;18176;49.502;11.754;2022-08-11T14:50:18;3.17;;;2.30;;
21183;SDS011;18176;49.502;11.754;2022-08-11T14:54:27;5.82;;;2.40;;
21183;SDS011;18176;49.502;11.754;2022-08-11T14:58:45;3.90;;;2.25;;
21183;SDS011;18176;49.502;11.754;2022-08-11T15:02:43;6.30;;;2.65;;
21183;SDS011;18176;49.502;11.754;2022-08-11T15:07:02;2.42;;;2.22;;
21183;SDS011;18176;49.502;11.754;2022-08-11T15:11:13;7.95;;;2.50;;
21183;SDS011;18176;49.502;11.754;2022-08-11T15:15:32;3.63;;;2.20;;
21183;SDS011;18176;49.502;11.754;2022-08-11T15:19:49;4.35;;;2.33;;
21183;SDS011;18176;49.502;11.754;2022-08-11T15:24:06;2.17;;;1.98;;
21183;SDS011;18176;49.502;11.754;2022-08-11T15:28:27;3.08;;;2.22;;
21183;SDS011;18176;49.502;11.754;2022-08-11T15:32:48;8.63;;;2.90;;
21183;SDS011;18176;49.502;11.754;2022-08-11T15:37:07;5.00;;;2.55;;
21183;SDS011;18176;49.502;11.754;2022-08-11T15:41:22;5.13;;;2.35;;
21183;SDS011;18176;49.502;11.754;2022-08-11T15:46:19;3.28;;;2.30;;
21183;SDS011;18176;49.502;11.754;2022-08-11T15:50:29;4.53;;;2.25;;
21183;SDS011;18176;49.502;11.754;2022-08-11T15:54:34;5.10;;;2.30;;
21183;SDS011;18176;49.502;11.754;2022-08-11T15:58:38;3.97;;;2.30;;
21183;SDS011;18176;49.502;11.754;2022-08-11T16:03:20;2.78;;;2.35;;
21183;SDS011;18176;49.502;11.754;2022-08-11T16:08:00;6.38;;;2.40;;
21183;SDS011;18176;49.502;11.754;2022-08-11T16:12:01;4.93;;;2.50;;
21183;SDS011;18176;49.502;11.754;2022-08-11T16:16:03;6.80;;;2.20;;
21183;SDS011;18176;49.502;11.754;2022-08-11T16:20:13;7.22;;;2.42;;
21183;SDS011;18176;49.502;11.754;2022-08-11T16:24:17;4.18;;;2.28;;
21183;SDS011;18176;49.502;11.754;2022-08-11T16:28:37;5.53;;;2.40;;
21183;SDS011;18176;49.502;11.754;2022-08-11T16:32:40;5.38;;;2.63;;
21183;SDS011;18176;49.502;11.754;2022-08-11T16:36:41;3.67;;;2.40;;
21183;SDS011;18176;49.502;11.754;2022-08-11T16:40:57;5.25;;;2.45;;
21183;SDS011;18176;49.502;11.754;2022-08-11T16:44:57;5.53;;;2.60;;
21183;SDS011;18176;49.502;11.754;2022-08-11T16:49:15;5.68;;;2.58;;
21183;SDS011;18176;49.502;11.754;2022-08-11T16:53:20;3.78;;;2.60;;
21183;SDS011;18176;49.502;11.754;2022-08-11T16:57:37;6.57;;;2.40;;
21183;SDS011;18176;49.502;11.754;2022-08-11T17:01:57;2.55;;;2.35;;
21183;SDS011;18176;49.502;11.754;2022-08-11T17:06:00;4.65;;;2.70;;
21183;SDS011;18176;49.502;11.754;2022-08-11T17:10:24;5.15;;;2.63;;
21183;SDS011;18176;49.502;11.754;2022-08-11T17:14:54;5.72;;;2.50;;
21183;SDS011;18176;49.502;11.754;2022-08-11T17:19:06;6.40;;;2.40;;
21183;SDS011;18176;49.502;11.754;2022-08-11T17:23:09;5.53;;;2.42;;
21183;SDS011;18176;49.502;11.754;2022-08-11T17:27:25;6.30;;;2.47;;
21183;SDS011;18176;49.502;11.754;2022-08-11T17:31:26;6.22;;;2.17;;
21183;SDS011;18176;49.502;11.754;2022-08-11T17:35:44;4.53;;;2.10;;
21183;SDS011;18176;49.502;11.754;2022-08-11T17:39:41;2.30;;;2.15;;
21183;SDS011;18176;49.502;11.754;2022-08-11T17:43:41;5.28;;;2.35;;
21183;SDS011;18176;49.502;11.754;2022-08-11T17:47:58;4.07;;;2.40;;
21183;SDS011;18176;49.502;11.754;2022-08-11T17:52:16;2.83;;;2.30;;
21183;SDS011;18176;49.502;11.754;2022-08-11T17:56:34;8.15;;;2.70;;
21183;SDS011;18176;49.502;11.754;2022-08-11T18:00:50;5.40;;;2.53;;
21183;SDS011;18176;49.502;11.754;2022-08-11T18:04:51;3.53;;;2.10;;
21183;SDS011;18176;49.502;11.754;2022-08-11T18:08:51;2.42;;;2.13;;
21183;SDS011;18176;49.502;11.754;2022-08-11T18:13:09;2.95;;;2.03;;
21183;SDS011;18176;49.502;11.754;2022-08-11T18:17:26;6.38;;;2.55;;
21183;SDS011;18176;49.502;11.754;2022-08-11T18:21:42;7.55;;;3.25;;
21183;SDS011;18176;49.502;11.754;2022-08-11T18:26:11;8.77;;;4.55;;
21183;SDS011;18176;49.502;11.754;2022-08-11T18:30:33;13.80;;;5.10;;
21183;SDS011;18176;49.502;11.754;2022-08-11T18:34:59;10.25;;;4.55;;
21183;SDS011;18176;49.502;11.754;2022-08-11T18:39:19;10.48;;;5.07;;
21183;SDS011;18176;49.502;11.754;2022-08-11T18:43:38;10.85;;;5.55;;
21183;SDS011;18176;49.502;11.754;2022-08-11T18:48:03;13.85;;;5.57;;
21183;SDS011;18176;49.502;11.754;2022-08-11T18:52:31;5.80;;;3.15;;
21183;SDS011;18176;49.502;11.754;2022-08-11T18:56:49;5.38;;;2.83;;
21183;SDS011;18176;49.502;11.754;2022-08-11T19:01:08;5.07;;;2.38;;
21183;SDS011;18176;49.502;11.754;2022-08-11T19:05:30;4.25;;;2.30;;
21183;SDS011;18176;49.502;11.754;2022-08-11T19:10:10;4.03;;;2.45;;
21183;SDS011;18176;49.502;11.754;2022-08-11T19:14:30;5.88;;;2.20;;
21183;SDS011;18176;49.502;11.754;2022-08-11T19:18:49;5.55;;;2.80;;
21183;SDS011;18176;49.502;11.754;2022-08-11T19:23:07;11.00;;;2.55;;
21183;SDS011;18176;49.502;11.754;2022-08-11T19:27:26;5.15;;;2.53;;
21183;SDS011;18176;49.502;11.754;2022-08-11T19:31:43;3.45;;;2.38;;
21183;SDS011;18176;49.502;11.754;2022-08-11T19:36:01;9.48;;;5.45;;
21183;SDS011;18176;49.502;11.754;2022-08-11T19:40:17;3.50;;;2.42;;
21183;SDS011;18176;49.502;11.754;2022-08-11T19:44:34;3.58;;;2.65;;
21183;SDS011;18176;49.502;11.754;2022-08-11T19:48:52;5.40;;;3.25;;
21183;SDS011;18176;49.502;11.754;2022-08-11T19:53:11;6.25;;;2.42;;
21183;SDS011;18176;49.502;11.754;2022-08-11T19:57:28;3.28;;;2.03;;
21183;SDS011;18176;49.502;11.754;2022-08-11T20:01:46;3.25;;;2.15;;
21183;SDS011;18176;49.502;11.754;2022-08-11T20:06:09;3.72;;;2.35;;
21183;SDS011;18176;49.502;11.754;2022-08-11T20:10:27;3.22;;;2.15;;
21183;SDS011;18176;49.502;11.754;2022-08-11T20:14:47;4.32;;;2.40;;
21183;SDS011;18176;49.502;11.754;2022-08-11T20:19:06;3.35;;;2.50;;
21183;SDS011;18176;49.502;11.754;2022-08-11T20:23:42;4.30;;;2.50;;
21183;SDS011;18176;49.502;11.754;2022-08-11T20:28:02;3.75;;;2.33;;
21183;SDS011;18176;49.502;11.754;2022-08-11T20:32:23;4.68;;;2.50;;
21183;SDS011;18176;49.502;11.754;2022-08-11T20:36:38;2.58;;;2.38;;
21183;SDS011;18176;49.502;11.754;2022-08-11T20:40:56;2.90;;;2.35;;
21183;SDS011;18176;49.502;11.754;2022-08-11T20:45:15;3.47;;;3.03;;
21183;SDS011;18176;49.502;11.754;2022-08-11T20:49:48;7.47;;;2.63;;
21183;SDS011;18176;49.502;11.754;2022-08-11T20:54:14;3.33;;;2.20;;
21183;SDS011;18176;49.502;11.754;2022-08-11T20:58:38;3.70;;;2.40;;
21183;SDS011;18176;49.502;11.754;2022-08-11T21:03:14;5.97;;;3.83;;
21183;SDS011;18176;49.502;11.754;2022-08-11T21:07:42;4.30;;;2.33;;
21183;SDS011;18176;49.502;11.754;2022-08-11T21:12:06;5.32;;;2.83;;
21183;SDS011;18176;49.502;11.754;2022-08-11T21:16:34;5.55;;;2.30;;
21183;SDS011;18176;49.502;11.754;2022-08-11T21:20:51;3.55;;;2.30;;
21183;SDS011;18176;49.502;11.754;2022-08-11T21:25:13;3.67;;;2.40;;
21183;SDS011;18176;49.502;11.754;2022-08-11T21:29:33;5.40;;;2.50;;
21183;SDS011;18176;49.502;11.754;2022-08-11T21:33:52;3.80;;;2.40;;
21183;SDS011;18176;49.502;11.754;2022-08-11T21:38:10;3.42;;;2.55;;
21183;SDS011;18176;49.502;11.754;2022-08-11T21:42:29;4.15;;;2.42;;
21183;SDS011;18176;49.502;11.754;2022-08-11T21:46:51;4.03;;;2.25;;
21183;SDS011;18176;49.502;11.754;2022-08-11T21:51:12;3.28;;;2.10;;
21183;SDS011;18176;49.502;11.754;2022-08-11T21:55:28;3.58;;;2.75;;
21183;SDS011;18176;49.502;11.754;2022-08-11T21:59:52;4.95;;;2.50;;
21183;SDS011;18176;49.502;11.754;2022-08-11T22:04:12;2.80;;;2.50;;
21183;SDS011;18176;49.502;11.754;2022-08-11T22:08:31;4.07;;;2.58;;
21183;SDS011;18176;49.502;11.754;2022-08-11T22:12:49;4.57;;;2.35;;
21183;SDS011;18176;49.502;11.754;2022-08-11T22:17:05;4.63;;;2.60;;
21183;SDS011;18176;49.502;11.754;2022-08-11T22:21:21;3.63;;;2.25;;
21183;SDS011;18176;49.502;11.754;2022-08-11T22:25:58;5.50;;;2.40;;
21183;SDS011;18176;49.502;11.754;2022-08-11T22:30:17;4.68;;;2.45;;
21183;SDS011;18176;49.502;11.754;2022-08-11T22:34:33;4.72;;;2.60;;
21183;SDS011;18176;49.502;11.754;2022-08-11T22:38:49;5.20;;;2.90;;
21183;SDS011;18176;49.502;11.754;2022-08-11T22:43:06;4.25;;;2.45;;
21183;SDS011;18176;49.502;11.754;2022-08-11T22:47:21;5.65;;;2.63;;
21183;SDS011;18176;49.502;11.754;2022-08-11T22:51:40;5.35;;;2.58;;
21183;SDS011;18176;49.502;11.754;2022-08-11T22:55:58;2.78;;;2.22;;
21183;SDS011;18176;49.502;11.754;2022-08-11T23:00:27;5.23;;;2.63;;
21183;SDS011;18176;49.502;11.754;2022-08-11T23:04:43;5.20;;;2.50;;
21183;SDS011;18176;49.502;11.754;2022-08-11T23:09:02;2.80;;;2.53;;
21183;SDS011;18176;49.502;11.754;2022-08-11T23:13:19;3.57;;;2.60;;
21183;SDS011;18176;49.502;11.754;2022-08-11T23:17:36;9.20;;;2.90;;
21183;SDS011;18176;49.502;11.754;2022-08-11T23:21:52;4.43;;;3.00;;
21183;SDS011;18176;49.502;11.754;2022-08-11T23:26:09;3.37;;;2.80;;
21183;SDS011;18176;49.502;11.754;2022-08-11T23:30:26;4.83;;;2.97;;
21183;SDS011;18176;49.502;11.754;2022-08-11T23:34:43;4.40;;;3.00;;
21183;SDS011;18176;49.502;11.754;2022-08-11T23:39:24;4.97;;;3.00;;
21183;SDS011;18176;49.502;11.754;2022-08-11T23:43:41;3.63;;;3.00;;
21183;SDS011;18176;49.502;11.754;2022-08-11T23:47:59;3.30;;;2.67;;
21183;SDS011;18176;49.502;11.754;2022-08-11T23:52:16;5.30;;;2.90;;
21183;SDS011;18176;49.502;11.754;2022-08-11T23:56:34;3.17;;;2.67;;
